Time;durP1;ratioP1;P1;durP2;ratioP2;P2;SDS_P1;SDS_P2;PMS_P1;PMS_P2;Temp;Humidity;BMP_temperature;BMP_pressure;BME280_temperature;BME280_humidity;BME280_pressure;Samples;Min_cycle;Max_cycle;Signal;HPM_P1;HPM_P2
2022/02/25 00:01:41;;;;;;;33.05;18.85;;;;;;;-0.67;100.00;101579.21;1695166;84;21047;-84
2022/02/25 00:04:10;;;;;;;33.50;20.23;;;;;;;-0.66;100.00;101582.19;1634605;86;21102;-84
2022/02/25 00:06:38;;;;;;;37.17;21.17;;;;;;;-0.68;100.00;101566.83;1695607;84;21070;-82
2022/02/25 00:09:07;;;;;;;47.93;25.62;;;;;;;-0.67;100.00;101568.98;1657197;85;21107;-84
2022/02/25 00:11:37;;;;;;;41.90;24.95;;;;;;;-0.68;100.00;101566.83;1695225;84;21086;-83
2022/02/25 00:14:06;;;;;;;36.80;22.87;;;;;;;-0.67;100.00;101567.25;1656819;86;21043;-83
2022/02/25 00:16:35;;;;;;;36.28;21.20;;;;;;;-0.68;100.00;101559.16;1695011;84;21785;-83
2022/02/25 00:19:03;;;;;;;42.23;23.60;;;;;;;-0.66;100.00;101550.20;1657016;86;21155;-84
2022/02/25 00:21:30;;;;;;;46.30;25.77;;;;;;;-0.66;100.00;101548.48;1695014;84;22119;-85
2022/02/25 00:23:59;;;;;;;37.90;22.42;;;;;;;-0.66;100.00;101547.65;1669097;85;21847;-84
2022/02/25 00:26:26;;;;;;;34.53;20.25;;;;;;;-0.65;100.00;101538.66;1706551;83;21098;-82
2022/02/25 00:28:55;;;;;;;34.03;20.02;;;;;;;-0.64;100.00;101531.82;1706677;84;21104;-82
2022/02/25 00:31:24;;;;;;;34.58;22.30;;;;;;;-0.65;100.00;101528.44;1706791;84;21595;-82
2022/02/25 00:33:52;;;;;;;35.20;21.15;;;;;;;-0.64;100.00;101524.15;1670120;85;21046;-82
2022/02/25 00:36:21;;;;;;;35.58;21.37;;;;;;;-0.65;100.00;101510.52;1705767;84;20991;-83
2022/02/25 00:38:51;;;;;;;34.18;19.67;;;;;;;-0.64;100.00;101509.66;1670238;85;21012;-84
2022/02/25 00:41:20;;;;;;;31.30;18.87;;;;;;;-0.64;100.00;101511.36;1706443;83;21065;-85
2022/02/25 00:43:48;;;;;;;31.62;17.62;;;;;;;-0.65;100.00;101510.97;1669958;85;21098;-84
2022/02/25 00:46:17;;;;;;;28.00;17.05;;;;;;;-0.65;100.00;101504.58;1706460;83;22018;-83
2022/02/25 00:48:49;;;;;;;27.10;17.52;;;;;;;-0.67;100.00;101504.58;1670030;85;21070;-82
2022/02/25 00:51:16;;;;;;;32.93;19.32;;;;;;;-0.65;100.00;101500.29;1684639;84;21109;-84
2022/02/25 00:53:46;;;;;;;30.05;18.35;;;;;;;-0.64;100.00;101496.88;1695210;83;21074;-83
2022/02/25 00:56:15;;;;;;;32.80;19.73;;;;;;;-0.62;100.00;101491.72;1708095;83;21042;-84
2022/02/25 00:58:43;;;;;;;26.12;16.67;;;;;;;-0.61;100.00;101490.86;1696901;83;21184;-83
2022/02/25 01:01:10;;;;;;;28.90;16.55;;;;;;;-0.61;100.00;101488.30;1688314;84;21022;-84
2022/02/25 01:03:37;;;;;;;26.07;16.50;;;;;;;-0.62;100.00;101481.48;1706772;84;21061;-83
2022/02/25 01:06:04;;;;;;;22.42;15.43;;;;;;;-0.62;100.00;101476.38;1687774;84;21087;-82
2022/02/25 01:08:33;;;;;;;22.48;14.78;;;;;;;-0.65;100.00;101472.15;1706666;84;21031;-82
2022/02/25 01:11:00;;;;;;;25.20;15.85;;;;;;;-0.65;100.00;101472.15;1688148;84;21094;-88
2022/02/25 01:13:27;;;;;;;24.82;16.27;;;;;;;-0.67;100.00;101460.25;1706648;84;21026;-83
2022/02/25 01:15:54;;;;;;;25.17;15.30;;;;;;;-0.68;100.00;101456.00;1670245;85;21112;-83
2022/02/25 01:18:22;;;;;;;26.80;15.38;;;;;;;-0.70;100.00;101452.20;1706085;84;21014;-83
2022/02/25 01:20:49;;;;;;;22.27;14.40;;;;;;;-0.70;100.00;101447.50;1670297;85;21097;-84
2022/02/25 01:23:17;;;;;;;24.18;15.03;;;;;;;-0.72;100.00;101444.97;1699349;84;21138;-83
2022/02/25 01:25:44;;;;;;;23.20;15.43;;;;;;;-0.72;100.00;101447.53;1645906;87;21019;-83
2022/02/25 01:28:12;;;;;;;25.25;15.48;;;;;;;-0.72;100.00;101443.69;1693269;84;21062;-83
2022/02/25 01:30:39;;;;;;;22.82;15.40;;;;;;;-0.72;100.00;101439.86;1646065;85;21058;-83
2022/02/25 01:33:06;;;;;;;22.58;14.55;;;;;;;-0.72;100.00;101442.41;1692962;84;21663;-85
2022/02/25 01:35:35;;;;;;;23.80;14.87;;;;;;;-0.71;100.00;101436.44;1630488;87;21443;-84
2022/02/25 01:38:04;;;;;;;27.87;15.72;;;;;;;-0.70;100.00;101433.42;1692759;84;21166;-83
2022/02/25 01:40:31;;;;;;;27.80;16.12;;;;;;;-0.69;100.00;101432.56;1630170;87;21667;-83
2022/02/25 01:42:58;;;;;;;26.48;15.83;;;;;;;-0.69;100.00;101427.03;1692595;84;21556;-83
2022/02/25 01:45:26;;;;;;;25.52;15.55;;;;;;;-0.67;100.00;101423.99;1645100;87;21811;-82
2022/02/25 01:47:55;;;;;;;25.75;15.15;;;;;;;-0.66;100.00;101420.57;1692382;84;21884;-83
2022/02/25 01:50:24;;;;;;;24.05;15.63;;;;;;;-0.64;100.00;101422.68;1629832;87;21098;-82
2022/02/25 01:53:00;;;;;;;26.75;15.48;;;;;;;-0.60;100.00;101425.20;1692693;84;21561;-81
2022/02/25 01:55:30;;;;;;;23.27;14.53;;;;;;;-0.58;100.00;101422.16;1644426;87;21032;-82
2022/02/25 01:57:58;;;;;;;24.25;14.58;;;;;;;-0.53;100.00;101422.95;1692969;84;21047;-86
2022/02/25 02:00:26;;;;;;;21.77;14.13;;;;;;;-0.50;100.00;101425.03;1693029;84;21664;-85
2022/02/25 02:02:53;;;;;;;24.25;15.58;;;;;;;-0.48;100.00;101423.72;1645510;87;21036;-82
2022/02/25 02:05:22;;;;;;;23.45;15.10;;;;;;;-0.46;100.00;101421.13;1692906;84;21623;-82
2022/02/25 02:07:49;;;;;;;25.32;15.88;;;;;;;-0.46;100.00;101420.70;1645929;87;21082;-82
2022/02/25 02:10:16;;;;;;;28.90;16.30;;;;;;;-0.45;100.00;101422.39;1692935;84;21552;-82
2022/02/25 02:12:44;;;;;;;32.17;19.20;;;;;;;-0.42;100.00;101417.66;1645785;87;21840;-82
2022/02/25 02:15:13;;;;;;;30.10;17.87;;;;;;;-0.40;100.00;101421.88;1650944;84;21010;-81
2022/02/25 02:17:41;;;;;;;30.15;17.48;;;;;;;-0.38;100.00;101421.42;1621585;85;33335;-81
2022/02/25 02:20:09;;;;;;;24.55;15.25;;;;;;;-0.35;100.00;101417.52;1674835;85;21100;-82
2022/02/25 02:22:36;;;;;;;24.43;14.53;;;;;;;-0.33;100.00;101411.94;1674862;85;21133;-84
2022/02/25 02:25:05;;;;;;;24.50;15.40;;;;;;;-0.29;100.00;101414.02;1671566;84;21156;-86
2022/02/25 02:30:20;;;;;;;23.12;15.18;;;;;;;-0.25;100.00;101414.39;1671612;84;22222;-85
2022/02/25 02:32:47;;;;;;;21.23;13.72;;;;;;;-0.23;100.00;101419.47;1671602;85;21101;-84
2022/02/25 02:35:18;;;;;;;21.20;14.78;;;;;;;-0.19;100.00;101415.97;1671702;85;21011;-82
2022/02/25 02:37:45;;;;;;;20.90;14.60;;;;;;;-0.18;100.00;101414.69;1671367;84;21943;-82
2022/02/25 02:40:12;;;;;;;19.42;12.95;;;;;;;-0.17;100.00;101409.98;1671531;84;21018;-82
2022/02/25 02:42:39;;;;;;;21.15;13.72;;;;;;;-0.15;100.00;101402.27;1645472;85;21018;-82
2022/02/25 02:45:07;;;;;;;22.85;13.70;;;;;;;-0.13;100.00;101399.25;1671755;84;21006;-82
2022/02/25 02:47:36;;;;;;;27.58;15.78;;;;;;;-0.10;100.00;101395.33;1671508;85;21046;-83
2022/02/25 02:50:05;;;;;;;23.30;14.50;;;;;;;-0.08;100.00;101388.47;1671433;84;21155;-83
2022/02/25 02:52:32;;;;;;;21.62;14.18;;;;;;;-0.06;100.00;101390.58;1645405;85;21126;-83
2022/02/25 02:55:00;;;;;;;21.33;14.47;;;;;;;-0.04;100.00;101391.38;1671699;84;21036;-82
2022/02/25 02:57:28;;;;;;;23.38;14.73;;;;;;;0.01;100.00;101396.41;1671469;85;21045;-84
2022/02/25 02:59:57;;;;;;;24.92;15.55;;;;;;;0.04;100.00;101391.24;1671811;84;21718;-83
2022/02/25 03:02:26;;;;;;;21.68;14.33;;;;;;;0.05;100.00;101384.39;1671358;85;21161;-83
2022/02/25 03:04:53;;;;;;;20.37;13.43;;;;;;;0.08;100.00;101384.34;1671688;85;21133;-83
2022/02/25 03:07:20;;;;;;;25.45;14.75;;;;;;;0.12;100.00;101384.71;1646420;84;21006;-82
2022/02/25 03:09:47;;;;;;;30.10;17.48;;;;;;;0.14;100.00;101376.12;1645842;85;21049;-83
2022/02/25 03:12:14;;;;;;;35.08;19.95;;;;;;;0.17;100.00;101375.63;1645482;85;21610;-82
2022/02/25 03:14:41;;;;;;;36.73;21.93;;;;;;;0.19;100.00;101373.89;1671884;84;21128;-83
2022/02/25 03:17:11;;;;;;;39.13;20.40;;;;;;;0.21;100.00;101375.55;1671395;84;21314;-83
2022/02/25 03:19:39;;;;;;;44.67;24.65;;;;;;;0.21;100.00;101370.42;1671527;84;21092;-84
2022/02/25 03:22:07;;;;;;;49.33;28.00;;;;;;;0.22;100.00;101370.83;1671752;84;21070;-86
2022/02/25 03:24:36;;;;;;;53.80;30.25;;;;;;;0.24;100.00;101361.41;1686347;83;21050;-84
2022/02/25 03:27:04;;;;;;;53.65;30.62;;;;;;;0.24;100.00;101359.29;1697114;84;21126;-85
2022/02/25 03:29:33;;;;;;;54.27;28.98;;;;;;;0.23;100.00;101359.71;1687940;83;21030;-85
2022/02/25 03:32:00;;;;;;;64.95;31.77;;;;;;;0.22;100.00;101352.06;1668728;84;21045;-83
2022/02/25 03:34:27;;;;;;;63.42;33.00;;;;;;;0.21;100.00;101346.53;1667618;85;21022;-82
2022/02/25 03:36:55;;;;;;;58.23;31.48;;;;;;;0.18;100.00;101343.60;1668482;85;21037;-83
2022/02/25 03:39:22;;;;;;;50.20;25.35;;;;;;;0.15;100.00;101356.45;1667991;85;21122;-84
2022/02/25 03:41:49;;;;;;;28.80;16.48;;;;;;;0.12;100.00;101343.73;1669369;84;21065;-83
2022/02/25 03:44:18;;;;;;;17.05;11.78;;;;;;;0.10;100.00;101355.27;1668365;84;21081;-82
2022/02/25 03:46:45;;;;;;;17.07;11.30;;;;;;;0.08;100.00;101347.20;1673106;84;21687;-84
2022/02/25 03:49:22;;;;;;;16.80;11.20;;;;;;;0.06;100.00;101344.69;1691786;84;21674;-85
2022/02/25 03:51:52;;;;;;;16.02;10.23;;;;;;;0.05;100.00;101338.30;1679935;84;21879;-85
2022/02/25 03:54:19;;;;;;;14.43;9.90;;;;;;;0.04;100.00;101340.48;1668697;84;21109;-84
2022/02/25 03:56:46;;;;;;;14.70;10.80;;;;;;;0.03;100.00;101334.94;1668931;84;21679;-84
2022/02/25 03:59:14;;;;;;;15.43;11.05;;;;;;;0.03;100.00;101339.61;1647333;86;21176;-85
2022/02/25 04:01:51;;;;;;;16.37;11.30;;;;;;;0.03;100.00;101334.94;1647669;87;21049;-84
2022/02/25 04:04:12;;;;;;;17.30;10.98;;;;;;;0.04;100.00;101339.19;1582907;89;21840;-82
2022/02/25 04:06:39;;;;;;;14.98;10.18;;;;;;;0.05;100.00;101339.58;1668061;86;21026;-82
2022/02/25 04:09:06;;;;;;;17.23;10.93;;;;;;;0.04;100.00;101335.35;1638046;86;21018;-83
2022/02/25 04:11:33;;;;;;;17.60;11.00;;;;;;;0.04;100.00;101341.75;1668858;86;21057;-83
2022/02/25 04:14:02;;;;;;;18.42;11.45;;;;;;;0.04;100.00;101341.75;1643614;85;21117;-84
2022/02/25 04:16:31;;;;;;;15.35;10.05;;;;;;;0.05;100.00;101346.84;1653063;86;21166;-83
2022/02/25 04:18:59;;;;;;;17.20;10.95;;;;;;;0.05;100.00;101341.72;1635775;85;21162;-82
2022/02/25 04:21:26;;;;;;;20.00;11.75;;;;;;;0.05;100.00;101344.28;1618225;87;21036;-84
2022/02/25 04:23:54;;;;;;;19.35;11.57;;;;;;;0.05;100.00;101342.13;1582973;88;21121;-82
2022/02/25 04:26:21;;;;;;;16.52;11.48;;;;;;;0.06;100.00;101343.83;1688692;84;21554;-82
2022/02/25 04:28:48;;;;;;;13.05;10.38;;;;;;;0.06;100.00;101343.83;1703102;82;21167;-82
2022/02/25 04:31:15;;;;;;;16.35;10.72;;;;;;;0.05;100.00;101341.72;1689113;83;21876;-82
2022/02/25 04:33:43;;;;;;;16.80;11.12;;;;;;;0.04;100.00;101345.59;1708339;82;21132;-84
2022/02/25 04:36:10;;;;;;;17.73;12.43;;;;;;;0.03;100.00;101344.73;1719905;82;21120;-84
2022/02/25 04:38:38;;;;;;;17.37;11.53;;;;;;;0.02;100.00;101337.92;1684403;84;22231;-84
2022/02/25 04:41:05;;;;;;;15.25;11.12;;;;;;;0.01;100.00;101339.24;1688637;84;21155;-82
2022/02/25 04:43:33;;;;;;;16.55;10.85;;;;;;;-0.01;100.00;101340.11;1701560;82;21046;-83
2022/02/25 04:46:00;;;;;;;15.50;10.40;;;;;;;0.00;100.00;101339.69;1747660;82;21649;-82
2022/02/25 04:48:34;;;;;;;18.48;11.93;;;;;;;0.01;100.00;101342.63;1713173;82;21042;-84
2022/02/25 04:51:02;;;;;;;16.12;11.20;;;;;;;0.02;100.00;101335.81;1741444;82;21049;-85
2022/02/25 04:53:29;;;;;;;16.07;11.30;;;;;;;0.02;100.00;101330.69;1714493;82;21153;-83
2022/02/25 04:55:57;;;;;;;17.30;12.05;;;;;;;0.02;100.00;101321.28;1652970;85;21545;-82
2022/02/25 04:58:24;;;;;;;20.02;12.75;;;;;;;0.02;100.00;101310.20;1716155;83;21106;-88
2022/02/25 05:00:51;;;;;;;19.77;12.53;;;;;;;0.01;100.00;101311.91;1696299;82;21029;-80
2022/02/25 05:03:21;;;;;;;23.27;13.32;;;;;;;0.10;100.00;101313.45;1716714;82;21069;-79
2022/02/25 05:05:48;;;;;;;19.62;12.05;;;;;;;0.21;100.00;101310.22;1735413;82;21153;-78
2022/02/25 05:08:15;;;;;;;22.62;12.20;;;;;;;0.30;100.00;101315.16;1728604;82;21164;-80
2022/02/25 05:10:43;;;;;;;18.82;11.75;;;;;;;0.33;100.00;101310.84;1730821;82;21043;-77
2022/02/25 05:13:11;;;;;;;14.93;10.85;;;;;;;0.43;100.00;101316.19;1732296;82;21569;-77
2022/02/25 05:21:11;;;;;;;17.80;11.65;;;;;;;0.50;100.00;101313.90;1672124;83;21023;-78
2022/02/25 05:23:38;;;;;;;21.27;12.03;;;;;;;0.60;100.00;101308.13;1730450;82;21638;-78
2022/02/25 05:26:07;;;;;;;18.52;11.70;;;;;;;0.62;100.00;101303.36;1695017;84;21513;-79
2022/02/25 05:28:39;;;;;;;20.52;12.03;;;;;;;0.71;100.00;101305.31;1671875;84;21086;-77
2022/02/25 05:31:08;;;;;;;19.87;12.25;;;;;;;0.66;100.00;101295.61;1694640;84;21221;-81
2022/02/25 05:33:36;;;;;;;17.67;12.25;;;;;;;0.67;100.00;101299.41;1668122;84;21161;-81
2022/02/25 05:36:05;;;;;;;17.20;11.20;;;;;;;0.66;100.00;101295.16;1694468;84;21054;-81
2022/02/25 05:38:32;;;;;;;22.75;12.28;;;;;;;0.63;100.00;101289.67;1671729;84;21159;-83
2022/02/25 05:40:59;;;;;;;17.60;12.37;;;;;;;0.61;100.00;101283.73;1691301;84;21486;-82
2022/02/25 05:43:26;;;;;;;17.92;12.88;;;;;;;0.58;100.00;101282.53;1692006;84;21147;-82
2022/02/25 05:45:53;;;;;;;16.80;12.88;;;;;;;0.55;100.00;101286.44;1694884;84;21044;-81
2022/02/25 05:48:21;;;;;;;17.02;11.63;;;;;;;0.51;100.00;101286.53;1687515;84;21575;-81
2022/02/25 05:50:48;;;;;;;18.12;12.20;;;;;;;0.42;100.00;101275.61;1673047;84;21533;-82
2022/02/25 05:53:15;;;;;;;21.85;12.50;;;;;;;0.40;100.00;101278.64;1695129;84;21192;-82
2022/02/25 05:55:43;;;;;;;20.20;12.78;;;;;;;0.39;100.00;101274.84;1694776;84;21149;-81
2022/02/25 05:58:12;;;;;;;19.75;13.00;;;;;;;0.35;100.00;101265.09;1678786;84;21184;-84
2022/02/25 06:00:40;;;;;;;23.30;12.73;;;;;;;0.31;100.00;101263.49;1634371;86;21118;-84
2022/02/25 06:03:09;;;;;;;23.27;13.15;;;;;;;0.28;100.00;101251.57;1657916;86;21663;-81
2022/02/25 06:05:37;;;;;;;20.32;13.85;;;;;;;0.30;100.00;101245.98;1644555;87;21014;-80
2022/02/25 06:08:07;;;;;;;19.70;12.35;;;;;;;0.31;100.00;101245.56;1639874;87;21968;-81
2022/02/25 06:10:34;;;;;;;20.37;12.75;;;;;;;0.33;100.00;101249.36;1669447;84;21097;-81
2022/02/25 06:13:02;;;;;;;18.15;11.90;;;;;;;0.33;100.00;101248.08;1647479;85;21569;-80
2022/02/25 06:15:29;;;;;;;23.25;12.30;;;;;;;0.33;100.00;101236.55;1647188;87;21590;-81
2022/02/25 06:17:56;;;;;;;17.37;12.73;;;;;;;0.34;100.00;101245.92;1646609;87;21014;-81
2022/02/25 06:20:23;;;;;;;19.55;12.70;;;;;;;0.41;100.00;101244.45;1633366;86;21614;-81
2022/02/25 06:22:50;;;;;;;18.40;12.40;;;;;;;0.44;100.00;101239.72;1631417;86;21023;-80
2022/02/25 06:25:18;;;;;;;15.18;10.80;;;;;;;0.50;100.00;101243.84;1635360;86;21095;-81
2022/02/25 06:27:45;;;;;;;18.80;11.93;;;;;;;0.48;100.00;101245.17;1669131;84;21018;-81
2022/02/25 06:30:15;;;;;;;17.27;12.45;;;;;;;0.44;100.00;101255.10;1674912;85;21567;-81
2022/02/25 06:32:43;;;;;;;18.05;12.65;;;;;;;0.42;100.00;101264.08;1663863;85;21770;-81
2022/02/25 06:35:11;;;;;;;19.48;13.00;;;;;;;0.44;100.00;101266.18;1648764;85;21692;-85
2022/02/25 06:37:40;;;;;;;18.55;12.93;;;;;;;0.47;100.00;101278.08;1674462;85;21535;-81
2022/02/25 06:40:09;;;;;;;18.42;12.50;;;;;;;0.51;100.00;101282.27;1674448;85;21073;-81
2022/02/25 06:42:38;;;;;;;17.25;11.83;;;;;;;0.53;100.00;101286.07;1674268;85;21097;-81
2022/02/25 06:45:06;;;;;;;16.73;11.50;;;;;;;0.55;100.00;101289.00;1674690;85;21860;-80
2022/02/25 06:47:33;;;;;;;20.27;12.23;;;;;;;0.59;100.00;101281.66;1655863;84;21551;-82
2022/02/25 06:50:00;;;;;;;21.55;12.90;;;;;;;0.60;100.00;101284.59;1674453;84;21449;-83
2022/02/25 06:52:27;;;;;;;19.80;12.95;;;;;;;0.57;100.00;101277.00;1669083;84;21048;-84
2022/02/25 06:54:55;;;;;;;21.45;12.78;;;;;;;0.57;100.00;101270.59;1673396;84;21076;-85
2022/02/25 06:57:23;;;;;;;21.65;13.25;;;;;;;0.56;100.00;101266.80;1643044;85;21150;-84
2022/02/25 06:59:50;;;;;;;20.35;12.50;;;;;;;0.58;100.00;101265.02;1647425;86;21558;-81
2022/02/25 07:02:18;;;;;;;24.50;13.50;;;;;;;0.56;100.00;101259.93;1648036;84;21080;-81
2022/02/25 07:04:44;;;;;;;21.75;12.60;;;;;;;0.51;100.00;101254.50;1647078;85;21155;-80
2022/02/25 07:07:14;;;;;;;18.92;12.60;;;;;;;0.49;100.00;101263.52;1665396;85;21044;-80
2022/02/25 07:09:42;;;;;;;19.10;13.28;;;;;;;0.49;100.00;101254.97;1647176;85;21173;-81
2022/02/25 07:12:10;;;;;;;18.23;13.50;;;;;;;0.48;100.00;101251.58;1648135;85;21030;-81
2022/02/25 07:14:38;;;;;;;19.40;12.80;;;;;;;0.47;100.00;101249.88;1648330;85;21559;-82
2022/02/25 07:17:05;;;;;;;17.62;12.28;;;;;;;0.44;100.00;101252.53;1674341;85;21030;-81
2022/02/25 07:19:33;;;;;;;16.65;12.37;;;;;;;0.49;100.00;101253.69;1674526;85;21128;-81
2022/02/25 07:22:01;;;;;;;16.48;12.18;;;;;;;0.56;100.00;101255.26;1669544;84;21143;-82
2022/02/25 07:24:28;;;;;;;16.40;11.85;;;;;;;0.61;100.00;101249.58;1635028;85;21131;-81
2022/02/25 07:26:55;;;;;;;16.52;12.05;;;;;;;0.63;100.00;101249.94;1678729;84;21022;-81
2022/02/25 07:29:24;;;;;;;17.90;12.88;;;;;;;0.65;100.00;101245.22;1660731;86;21464;-81
2022/02/25 07:31:51;;;;;;;24.95;14.78;;;;;;;0.69;100.00;101240.41;1688879;84;21690;-81
2022/02/25 07:34:19;;;;;;;22.13;13.93;;;;;;;0.68;100.00;101238.75;1671548;84;21545;-82
2022/02/25 07:36:45;;;;;;;18.07;12.88;;;;;;;0.64;100.00;101235.42;1695321;83;21063;-83
2022/02/25 07:39:13;;;;;;;16.35;11.68;;;;;;;0.63;100.00;101229.88;1675234;83;21058;-82
2022/02/25 07:41:40;;;;;;;17.23;12.07;;;;;;;0.62;100.00;101223.06;1606947;86;21114;-84
2022/02/25 07:44:07;;;;;;;15.90;12.05;;;;;;;0.57;100.00;101215.91;1622114;86;21572;-83
2022/02/25 07:46:35;;;;;;;19.62;11.57;;;;;;;0.54;100.00;101212.16;1606477;86;21802;-85
2022/02/25 07:49:02;;;;;;;19.00;12.10;;;;;;;0.53;100.00;101215.59;1692290;84;21569;-84
2022/02/25 07:51:30;;;;;;;14.85;11.33;;;;;;;0.51;100.00;101206.66;1697096;83;21610;-84
2022/02/25 07:54:04;;;;;;;16.65;11.65;;;;;;;0.52;100.00;101197.24;1692712;83;21018;-82
2022/02/25 07:56:32;;;;;;;19.62;10.25;;;;;;;0.54;100.00;101197.60;1662186;83;21153;-81
2022/02/25 07:58:59;;;;;;;15.30;10.40;;;;;;;0.57;100.00;101188.57;1668578;86;21780;-80
2022/02/25 08:01:27;;;;;;;18.12;11.10;;;;;;;0.59;100.00;101193.23;1685430;84;21046;-81
2022/02/25 08:03:55;;;;;;;13.72;10.20;;;;;;;0.62;100.00;101191.03;1668553;84;21545;-80
2022/02/25 08:06:24;;;;;;;17.17;10.93;;;;;;;0.65;100.00;101181.13;1668469;85;21526;-82
2022/02/25 08:08:52;;;;;;;17.50;10.45;;;;;;;0.69;100.00;101178.45;1668633;84;21022;-82
2022/02/25 08:11:20;;;;;;;13.00;10.63;;;;;;;0.70;100.00;101170.31;1668443;84;21144;-80
2022/02/25 08:13:47;;;;;;;16.77;9.78;;;;;;;0.73;100.00;101172.81;1668370;84;21121;-81
2022/02/25 08:16:15;;;;;;;13.72;9.73;;;;;;;0.74;100.00;101168.09;1674415;84;21030;-81
2022/02/25 08:18:42;;;;;;;16.12;10.68;;;;;;;0.73;100.00;101172.36;1686055;84;21062;-80
2022/02/25 08:21:12;;;;;;;15.20;11.00;;;;;;;0.73;100.00;101175.38;1694838;83;21619;-81
2022/02/25 08:23:39;;;;;;;18.97;11.07;;;;;;;0.73;100.00;101174.09;1688282;83;21144;-83
2022/02/25 08:26:07;;;;;;;14.10;10.45;;;;;;;0.73;100.00;101172.81;1692288;82;21081;-82
2022/02/25 08:28:35;;;;;;;13.62;10.80;;;;;;;0.74;100.00;101173.22;1681206;83;21116;-85
2022/02/25 08:31:02;;;;;;;13.95;10.25;;;;;;;0.76;100.00;101177.42;1705390;84;21126;-86
2022/02/25 08:33:29;;;;;;;15.32;9.90;;;;;;;0.79;100.00;101167.52;1695315;83;21015;-80
2022/02/25 08:35:56;;;;;;;12.63;9.63;;;;;;;0.82;100.00;101161.47;1693006;82;21118;-82
2022/02/25 08:38:26;;;;;;;11.93;8.80;;;;;;;0.79;100.00;101162.39;1708106;83;21173;-81
2022/02/25 08:40:53;;;;;;;10.88;7.85;;;;;;;0.80;100.00;101160.23;1697463;82;21709;-82
2022/02/25 08:43:20;;;;;;;10.82;8.08;;;;;;;0.82;100.00;101160.19;1696461;82;21139;-80
2022/02/25 08:45:49;;;;;;;16.87;8.60;;;;;;;0.82;100.00;101160.19;1697892;82;21130;-82
2022/02/25 08:48:16;;;;;;;12.33;8.75;;;;;;;0.82;100.00;101164.89;1710097;82;21131;-82
2022/02/25 08:50:43;;;;;;;11.80;8.95;;;;;;;0.86;100.00;101167.77;1688178;82;21050;-84
2022/02/25 08:53:11;;;;;;;12.05;8.40;;;;;;;0.87;100.00;101166.89;1696842;83;21097;-81
2022/02/25 08:55:38;;;;;;;11.05;8.25;;;;;;;0.85;100.00;101153.26;1683568;84;21702;-81
2022/02/25 08:58:05;;;;;;;9.53;7.85;;;;;;;0.84;100.00;101151.57;1696437;84;21106;-81
2022/02/25 09:00:32;;;;;;;11.68;8.65;;;;;;;0.86;100.00;101147.25;1712882;82;22145;-81
2022/02/25 09:02:59;;;;;;;10.65;8.98;;;;;;;0.88;100.00;101145.95;1716141;82;21132;-83
2022/02/25 09:05:27;;;;;;;9.93;8.35;;;;;;;0.90;100.00;101141.60;1719811;82;21065;-82
2022/02/25 09:07:58;;;;;;;10.70;8.23;;;;;;;0.89;100.00;101134.36;1709855;82;21275;-83
2022/02/25 09:10:26;;;;;;;10.98;8.33;;;;;;;0.89;100.00;101135.64;1709254;82;21596;-81
2022/02/25 09:12:53;;;;;;;13.45;9.03;;;;;;;0.96;100.00;101135.47;1678996;84;21955;-84
2022/02/25 09:15:26;;;;;;;11.65;9.28;;;;;;;0.99;100.00;101135.41;1684387;84;21065;-82
2022/02/25 09:17:58;;;;;;;11.40;7.95;;;;;;;1.04;100.00;101132.27;1686787;84;21054;-81
2022/02/25 09:20:28;;;;;;;10.50;8.45;;;;;;;1.06;100.00;101130.51;1686331;84;21074;-81
2022/02/25 09:22:58;;;;;;;11.63;8.60;;;;;;;1.13;100.00;101129.88;1691950;84;21019;-82
2022/02/25 09:25:27;;;;;;;9.58;7.62;;;;;;;1.19;100.00;101124.14;1731350;81;22024;-85
2022/02/25 09:27:54;;;;;;;11.45;7.95;;;;;;;1.21;100.00;101126.23;1679772;83;21083;-84
2022/02/25 09:30:24;;;;;;;15.43;9.20;;;;;;;1.20;100.00;101120.70;1701722;82;21074;-83
2022/02/25 09:32:51;;;;;;;11.85;8.28;;;;;;;1.21;100.00;101121.53;1712146;83;21062;-82
2022/02/25 09:35:18;;;;;;;11.68;8.60;;;;;;;1.20;100.00;101110.44;1706321;84;21571;-83
2022/02/25 09:37:46;;;;;;;10.68;8.50;;;;;;;1.19;100.00;101110.03;1711297;83;21073;-83
2022/02/25 09:40:21;;;;;;;10.53;8.08;;;;;;;1.20;100.00;101112.17;1700308;82;21086;-83
2022/02/25 09:42:48;;;;;;;10.40;7.47;;;;;;;1.17;100.00;101104.09;1695195;84;21064;-84
2022/02/25 09:45:17;;;;;;;9.80;7.62;;;;;;;1.17;100.00;101109.69;1736076;81;21038;-82
2022/02/25 09:47:46;;;;;;;8.75;7.12;;;;;;;1.17;100.00;101107.13;1699434;82;21061;-83
2022/02/25 09:50:18;;;;;;;9.38;7.47;;;;;;;1.16;100.00;101097.28;1673285;82;21150;-84
2022/02/25 09:52:46;;;;;;;9.55;7.58;;;;;;;1.22;100.00;101095.85;1699929;82;21120;-82
2022/02/25 09:55:28;;;;;;;8.63;7.35;;;;;;;1.29;100.00;101081.10;1700367;84;21536;-84
2022/02/25 09:57:59;;;;;;;8.23;7.33;;;;;;;1.33;100.00;101074.15;1682985;84;21054;-82
2022/02/25 10:00:30;;;;;;;9.25;7.37;;;;;;;1.33;100.00;101075.44;1654898;83;21117;-83
2022/02/25 10:03:02;;;;;;;18.27;7.22;;;;;;;1.35;100.00;101074.53;1675699;84;21114;-81
2022/02/25 10:05:31;;;;;;;8.23;7.10;;;;;;;1.42;100.00;101067.47;1674571;82;21053;-81
2022/02/25 10:08:21;;;;;;;8.48;7.17;;;;;;;1.47;100.00;101062.20;1646498;85;21143;-83
2022/02/25 10:10:57;;;;;;;9.33;8.20;;;;;;;1.51;100.00;101068.48;1636605;86;21043;-81
2022/02/25 10:13:26;;;;;;;55.00;8.73;;;;;;;1.64;100.00;101068.95;1617534;87;21398;-82
2022/02/25 10:16:01;;;;;;;31.70;7.87;;;;;;;1.72;100.00;101061.86;1686994;84;21793;-81
2022/02/25 10:18:32;;;;;;;17.85;7.78;;;;;;;1.82;100.00;101057.27;1691551;84;21034;-83
2022/02/25 10:21:12;;;;;;;9.70;7.45;;;;;;;1.89;100.00;101057.47;1690768;82;21064;-83
2022/02/25 10:23:46;;;;;;;11.27;7.10;;;;;;;1.85;100.00;101045.62;1700111;84;21015;-82
2022/02/25 10:26:20;;;;;;;10.28;7.40;;;;;;;1.81;100.00;101038.89;1703778;83;21098;-82
2022/02/25 10:28:51;;;;;;;10.75;7.22;;;;;;;1.87;100.00;101037.44;1693907;84;21725;-82
2022/02/25 10:31:35;;;;;;;9.13;6.80;;;;;;;1.87;100.00;101031.02;1696430;83;28937;-82
2022/02/25 10:34:07;;;;;;;7.92;6.47;;;;;;;1.87;100.00;101036.16;1681678;83;21066;-82
2022/02/25 10:36:48;;;;;;;9.30;6.97;;;;;;;1.89;100.00;101052.33;1674895;84;21623;-84
2022/02/25 10:39:29;;;;;;;8.70;7.03;;;;;;;1.89;100.00;101046.37;1677549;83;21110;-85
2022/02/25 10:42:19;;;;;;;8.30;7.37;;;;;;;1.81;100.00;101033.75;1683888;84;21666;-82
2022/02/25 10:45:02;;;;;;;8.38;6.75;;;;;;;1.84;100.00;101024.69;1681338;84;21039;-82
2022/02/25 10:47:35;;;;;;;8.28;6.10;;;;;;;1.84;100.00;101028.53;1672792;84;21054;-82
2022/02/25 10:50:20;;;;;;;9.10;7.12;;;;;;;1.79;100.00;101028.28;1696508;83;21062;-83
2022/02/25 10:52:47;;;;;;;11.50;7.00;;;;;;;1.73;100.00;101019.03;1696229;84;21137;-85
2022/02/25 10:55:22;;;;;;;;;;;;;;;1.65;100.00;101027.00;1698940;84;21827;-86
2022/02/25 10:57:53;;;;;;;7.55;6.70;;;;;;;1.69;100.00;101011.05;1671626;84;20177;-86
2022/02/25 11:00:21;;;;;;;;;;;;;;;1.76;100.00;101011.25;1699109;84;21089;-83
2022/02/25 11:02:51;;;;;;;8.15;6.50;;;;;;;1.83;100.00;101017.86;1664384;84;20191;-83
2022/02/25 11:05:22;;;;;;;7.40;6.55;;;;;;;1.89;100.00;101021.52;1668204;84;21089;-83
2022/02/25 11:07:58;;;;;;;7.45;6.45;;;;;;;1.92;100.00;101021.02;1673197;84;21202;-84
2022/02/25 11:10:29;;;;;;;7.92;6.70;;;;;;;1.92;100.00;101006.47;1676397;84;21114;-85
2022/02/25 11:13:01;;;;;;;8.68;6.90;;;;;;;1.85;100.00;101009.67;1650794;86;21017;-82
2022/02/25 11:15:31;;;;;;;11.55;8.08;;;;;;;1.80;100.00;101002.57;1608940;87;21025;-81
2022/02/25 11:18:00;;;;;;;8.50;6.73;;;;;;;1.74;100.00;101004.03;1623362;86;21027;-84
2022/02/25 11:20:31;;;;;;;7.75;6.17;;;;;;;1.67;100.00;101005.97;1619625;86;21676;-83
2022/02/25 11:23:08;;;;;;;7.33;6.40;;;;;;;1.61;100.00;101001.00;1605817;87;21568;-82
2022/02/25 11:25:38;;;;;;;7.15;6.40;;;;;;;1.53;100.00;100991.42;1617561;86;21142;-82
2022/02/25 11:28:06;;;;;;;7.33;6.50;;;;;;;1.45;100.00;100986.55;1668440;84;21586;-84